createdAt,value
2018-05-31T00:01:39.890Z,4.20
2018-05-31T00:04:07.582Z,4.10
2018-05-31T00:06:35.271Z,3.67
2018-05-31T00:09:03.040Z,4.30
2018-05-31T00:11:30.718Z,4.40
2018-05-31T00:13:58.498Z,3.30
2018-05-31T00:16:26.951Z,4.23
2018-05-31T00:18:54.670Z,4.17
2018-05-31T00:21:22.355Z,3.77
2018-05-31T00:23:50.075Z,3.70
2018-05-31T00:26:18.564Z,3.50
2018-05-31T00:28:46.286Z,3.90
2018-05-31T00:31:14.013Z,5.07
2018-05-31T00:33:41.699Z,4.70
2018-05-31T00:36:09.419Z,4.30
2018-05-31T00:38:37.862Z,4.47
2018-05-31T00:41:05.587Z,4.47
2018-05-31T00:43:33.272Z,4.27
2018-05-31T00:46:01.010Z,5.87
2018-05-31T00:48:28.703Z,4.03
2018-05-31T00:50:56.386Z,4.00
2018-05-31T00:53:24.123Z,3.60
2018-05-31T00:58:58.282Z,4.37
2018-05-31T01:01:25.971Z,4.23
2018-05-31T01:03:54.471Z,3.93
2018-05-31T01:06:22.192Z,4.10
2018-05-31T01:08:49.930Z,5.47
2018-05-31T01:11:17.624Z,4.10
2018-05-31T01:13:45.358Z,3.80
2018-05-31T01:16:13.054Z,4.97
2018-05-31T01:18:40.766Z,4.20
2018-05-31T01:21:08.490Z,4.10
2018-05-31T01:23:36.945Z,4.20
2018-05-31T01:26:04.630Z,4.33
2018-05-31T01:28:32.346Z,4.43
2018-05-31T01:31:00.102Z,4.53
2018-05-31T01:33:27.790Z,3.90
2018-05-31T01:35:55.539Z,4.30
2018-05-31T01:38:33.215Z,4.87
2018-05-31T01:41:00.949Z,3.80
2018-05-31T01:43:29.419Z,4.83
2018-05-31T01:45:57.142Z,4.20
2018-05-31T01:48:24.950Z,4.17
2018-05-31T01:50:53.458Z,4.43
2018-05-31T01:53:21.899Z,3.60
2018-05-31T01:55:49.614Z,4.60
2018-05-31T01:58:17.303Z,4.13
2018-05-31T02:00:45.034Z,4.07
2018-05-31T02:03:13.487Z,5.03
2018-05-31T02:05:41.210Z,5.77
2018-05-31T02:08:08.970Z,4.43
2018-05-31T02:10:36.658Z,4.13
2018-05-31T02:13:04.403Z,5.07
2018-05-31T02:15:32.134Z,4.90
2018-05-31T02:18:00.615Z,5.20
2018-05-31T02:20:28.355Z,4.17
2018-05-31T02:22:56.069Z,5.20
2018-05-31T02:25:23.787Z,6.03
2018-05-31T02:27:51.506Z,4.57
2018-05-31T02:30:19.218Z,5.27
2018-05-31T02:32:46.930Z,5.83
2018-05-31T02:35:14.662Z,5.60
2018-05-31T02:37:43.164Z,5.40
2018-05-31T02:40:10.847Z,4.77
2018-05-31T02:42:38.523Z,4.80
2018-05-31T02:45:06.242Z,5.80
2018-05-31T02:47:34.731Z,5.93
2018-05-31T02:50:02.425Z,8.20
2018-05-31T02:52:30.151Z,5.20
2018-05-31T02:54:58.639Z,5.30
2018-05-31T02:57:26.370Z,5.23
2018-05-31T02:59:54.062Z,5.23
2018-05-31T03:02:21.754Z,5.60
2018-05-31T03:04:49.502Z,6.33
2018-05-31T03:07:17.187Z,4.93
2018-05-31T03:09:44.938Z,5.27
2018-05-31T03:12:12.651Z,5.73
2018-05-31T03:14:40.366Z,5.50
2018-05-31T03:17:08.078Z,5.87
2018-05-31T03:19:35.762Z,5.73
2018-05-31T03:22:04.281Z,5.87
2018-05-31T03:24:31.994Z,5.37
2018-05-31T03:26:59.680Z,5.00
2018-05-31T03:29:28.034Z,5.50
2018-05-31T03:31:55.710Z,6.20
2018-05-31T03:34:24.200Z,6.80
2018-05-31T03:36:51.945Z,6.50
2018-05-31T03:39:19.622Z,6.80
2018-05-31T03:41:48.078Z,7.07
2018-05-31T03:44:15.801Z,6.70
2018-05-31T03:46:43.481Z,7.97
2018-05-31T03:49:11.214Z,7.27
2018-05-31T03:51:38.894Z,6.90
2018-05-31T03:54:06.575Z,7.70
2018-05-31T03:56:34.297Z,7.67
2018-05-31T03:59:02.743Z,6.90
2018-05-31T04:01:30.502Z,7.70
2018-05-31T04:03:58.174Z,6.97
2018-05-31T04:06:25.915Z,6.57
2018-05-31T04:08:53.595Z,7.47
2018-05-31T04:11:21.290Z,6.53
2018-05-31T04:13:49.782Z,8.63
2018-05-31T04:16:17.538Z,7.90
2018-05-31T04:18:45.991Z,7.03
2018-05-31T04:21:13.691Z,7.67
2018-05-31T04:23:41.431Z,6.67
2018-05-31T04:26:09.114Z,8.07
2018-05-31T04:28:37.566Z,7.10
2018-05-31T04:31:05.299Z,7.23
2018-05-31T04:33:32.996Z,9.27
2018-05-31T04:36:00.729Z,8.27
2018-05-31T04:38:28.466Z,7.63
2018-05-31T04:40:56.163Z,8.87
2018-05-31T04:43:23.854Z,7.60
2018-05-31T04:45:52.355Z,8.57
2018-05-31T04:48:20.802Z,7.73
2018-05-31T04:50:48.530Z,7.50
2018-05-31T04:53:16.218Z,8.70
2018-05-31T04:55:43.969Z,8.30
2018-05-31T04:58:11.662Z,8.20
2018-05-31T05:00:39.351Z,8.37
2018-05-31T05:03:07.848Z,8.07
2018-05-31T05:05:35.539Z,7.90
2018-05-31T05:08:03.303Z,8.00
2018-05-31T05:10:30.987Z,7.47
2018-05-31T05:12:58.721Z,7.37
2018-05-31T05:15:26.410Z,7.30
2018-05-31T05:17:54.145Z,7.23
2018-05-31T05:20:21.844Z,7.30
2018-05-31T05:22:49.579Z,6.50
2018-05-31T05:25:17.302Z,7.60
2018-05-31T05:27:45.810Z,7.40
2018-05-31T05:30:13.490Z,7.00
2018-05-31T05:32:41.180Z,5.83
2018-05-31T05:35:08.899Z,7.23
2018-05-31T05:37:36.583Z,7.17
2018-05-31T05:40:04.311Z,6.00
2018-05-31T05:42:32.768Z,6.23
2018-05-31T05:45:00.492Z,6.83
2018-05-31T05:47:28.211Z,5.60
2018-05-31T05:49:56.698Z,8.50
2018-05-31T05:52:25.167Z,6.10
2018-05-31T05:54:52.899Z,5.77
2018-05-31T05:57:20.711Z,6.83
2018-05-31T05:59:49.171Z,6.53
2018-05-31T06:02:16.898Z,6.27
2018-05-31T06:04:44.570Z,6.73
2018-05-31T06:07:12.307Z,7.00
2018-05-31T06:09:39.995Z,7.00
2018-05-31T06:12:08.443Z,5.93
2018-05-31T06:14:36.178Z,5.80
2018-05-31T06:17:03.876Z,8.20
2018-05-31T06:19:31.602Z,7.93
2018-05-31T06:21:59.318Z,7.93
2018-05-31T06:24:27.162Z,7.40
2018-05-31T06:26:55.673Z,5.73
2018-05-31T06:29:24.206Z,6.83
2018-05-31T06:31:52.758Z,6.47
2018-05-31T06:34:20.450Z,7.53
2018-05-31T06:36:48.180Z,7.50
2018-05-31T06:39:15.872Z,7.07
2018-05-31T06:41:43.586Z,6.17
2018-05-31T06:44:11.259Z,6.57
2018-05-31T06:46:38.987Z,6.37
2018-05-31T06:49:07.425Z,6.70
2018-05-31T06:51:35.868Z,7.53
2018-05-31T06:54:03.578Z,5.87
2018-05-31T06:56:31.431Z,6.60
2018-05-31T06:59:00.066Z,6.97
2018-05-31T07:01:27.890Z,6.73
2018-05-31T07:03:56.374Z,6.77
2018-05-31T07:06:24.046Z,6.57
2018-05-31T07:08:52.538Z,7.13
2018-05-31T07:11:20.231Z,6.27
2018-05-31T07:13:47.946Z,7.07
2018-05-31T07:16:15.639Z,6.90
2018-05-31T07:18:43.311Z,7.67
2018-05-31T07:21:11.071Z,7.07
2018-05-31T07:23:38.738Z,7.90
2018-05-31T07:26:07.227Z,6.63
2018-05-31T07:28:34.902Z,7.50
2018-05-31T07:31:04.171Z,7.20
2018-05-31T07:33:31.847Z,7.33
2018-05-31T07:35:59.571Z,7.13
2018-05-31T07:38:27.289Z,6.40
2018-05-31T07:40:54.962Z,6.60
2018-05-31T07:43:23.438Z,7.30
2018-05-31T07:45:51.272Z,6.90
2018-05-31T07:48:19.138Z,7.20
2018-05-31T07:50:46.904Z,6.00
2018-05-31T07:53:14.669Z,5.97
2018-05-31T07:55:42.537Z,6.27
2018-05-31T07:58:10.317Z,4.33
2018-05-31T08:00:38.994Z,3.93
2018-05-31T08:03:06.753Z,3.30
2018-05-31T08:05:34.620Z,3.60
2018-05-31T08:08:02.385Z,2.80
2018-05-31T08:10:30.258Z,2.80
2018-05-31T08:12:58.018Z,2.80
2018-05-31T08:15:25.885Z,3.63
2018-05-31T08:17:53.651Z,3.90
2018-05-31T08:20:21.416Z,2.80
2018-05-31T08:22:49.311Z,3.90
2018-05-31T08:25:17.278Z,2.30
2018-05-31T08:27:45.248Z,2.27
2018-05-31T08:30:12.955Z,3.00
2018-05-31T08:32:41.598Z,4.27
2018-05-31T08:35:09.370Z,3.80
2018-05-31T08:37:37.237Z,3.70
2018-05-31T08:40:05.003Z,3.50
2018-05-31T08:42:32.766Z,3.13
2018-05-31T08:45:00.659Z,2.83
2018-05-31T08:47:28.424Z,2.90
2018-05-31T08:49:56.190Z,3.80
2018-05-31T08:52:24.066Z,3.40
2018-05-31T08:54:51.822Z,3.30
2018-05-31T08:57:19.728Z,2.63
2018-05-31T08:59:48.277Z,3.17
2018-05-31T09:02:16.141Z,2.87
2018-05-31T09:04:43.906Z,4.50
2018-05-31T09:07:12.593Z,2.30
2018-05-31T09:09:40.387Z,1.80
2018-05-31T09:12:09.278Z,1.83
2018-05-31T09:14:37.040Z,2.00
2018-05-31T09:17:04.908Z,1.87
2018-05-31T09:19:32.696Z,1.80
2018-05-31T09:22:00.428Z,2.30
2018-05-31T09:24:28.329Z,2.63
2018-05-31T09:26:56.001Z,2.80
2018-05-31T09:29:23.965Z,2.47
2018-05-31T09:31:51.728Z,2.00
2018-05-31T09:34:19.457Z,2.10
2018-05-31T09:36:48.108Z,1.90
2018-05-31T09:39:15.788Z,1.83
2018-05-31T09:41:43.470Z,2.23
2018-05-31T09:44:11.967Z,1.63
2018-05-31T09:46:39.704Z,1.60
2018-05-31T09:49:07.519Z,1.47
2018-05-31T09:51:35.290Z,1.53
2018-05-31T09:54:03.150Z,1.93
2018-05-31T09:56:30.818Z,1.80
2018-05-31T09:58:58.681Z,1.83
2018-05-31T10:01:26.352Z,1.90
2018-05-31T10:03:54.074Z,1.80
2018-05-31T10:06:21.795Z,2.20
2018-05-31T10:08:49.473Z,2.00
2018-05-31T10:11:18.031Z,2.30
2018-05-31T10:13:45.699Z,2.07
2018-05-31T10:16:13.410Z,1.70
2018-05-31T10:18:41.083Z,1.80
2018-05-31T10:21:08.820Z,1.70
2018-05-31T10:23:37.263Z,2.30
2018-05-31T10:26:04.976Z,4.30
2018-05-31T10:28:33.468Z,2.00
2018-05-31T10:31:01.207Z,1.67
2018-05-31T10:33:29.646Z,1.63
2018-05-31T10:35:57.330Z,1.50
2018-05-31T10:38:25.044Z,1.87
2018-05-31T10:40:53.491Z,2.10
2018-05-31T10:43:21.226Z,2.50
2018-05-31T10:45:49.017Z,2.60
2018-05-31T10:48:16.877Z,3.13
2018-05-31T10:50:44.555Z,2.53
2018-05-31T10:53:12.239Z,2.00
2018-05-31T10:55:39.965Z,3.03
2018-05-31T10:58:08.404Z,2.87
2018-05-31T11:00:36.111Z,2.13
2018-05-31T11:03:03.980Z,2.30
2018-05-31T11:05:31.689Z,2.30
2018-05-31T11:08:00.224Z,2.23
2018-05-31T11:10:28.094Z,2.70
2018-05-31T11:12:55.856Z,2.40
2018-05-31T11:15:23.622Z,2.80
2018-05-31T11:17:51.483Z,3.30
2018-05-31T11:20:19.351Z,4.73
2018-05-31T11:22:47.031Z,5.23
2018-05-31T11:25:15.472Z,4.63
2018-05-31T11:27:43.179Z,3.60
2018-05-31T11:30:10.867Z,3.00
2018-05-31T11:32:38.586Z,2.87
2018-05-31T11:35:06.278Z,2.03
2018-05-31T11:37:33.949Z,2.50
2018-05-31T11:40:01.650Z,2.67
2018-05-31T11:42:29.322Z,2.13
2018-05-31T11:44:57.038Z,2.30
2018-05-31T11:47:25.478Z,2.33
2018-05-31T11:49:53.150Z,2.03
2018-05-31T11:52:20.891Z,2.40
2018-05-31T11:54:48.567Z,2.40
2018-05-31T11:57:16.247Z,2.03
2018-05-31T11:59:43.970Z,2.30
2018-05-31T12:02:11.638Z,2.20
2018-05-31T12:04:39.316Z,2.07
2018-05-31T12:07:07.031Z,2.27
2018-05-31T12:09:35.470Z,3.17
2018-05-31T12:12:03.186Z,2.50
2018-05-31T12:14:30.859Z,2.17
2018-05-31T12:16:58.602Z,2.50
2018-05-31T12:19:27.072Z,2.60
2018-05-31T12:21:55.519Z,2.60
2018-05-31T12:24:23.223Z,2.50
2018-05-31T12:26:51.662Z,3.10
2018-05-31T12:29:19.394Z,2.70
2018-05-31T12:31:47.083Z,2.03
2018-05-31T12:34:14.762Z,2.67
2018-05-31T12:36:42.498Z,3.17
2018-05-31T12:39:10.166Z,2.90
2018-05-31T12:41:37.857Z,2.50
2018-05-31T12:44:05.558Z,2.77
2018-05-31T12:46:33.235Z,3.10
2018-05-31T12:49:00.958Z,2.60
2018-05-31T12:51:28.629Z,2.70
2018-05-31T12:53:57.068Z,2.60
2018-05-31T12:56:24.771Z,2.60
2018-05-31T12:58:52.447Z,2.60
2018-05-31T13:01:20.922Z,2.50
2018-05-31T13:03:49.361Z,2.67
2018-05-31T13:06:17.058Z,2.60
2018-05-31T13:08:44.767Z,3.00
2018-05-31T13:11:12.443Z,2.33
2018-05-31T13:13:40.164Z,3.10
2018-05-31T13:16:08.767Z,2.70
2018-05-31T13:18:36.439Z,2.27
2018-05-31T13:21:04.109Z,2.30
2018-05-31T13:23:31.826Z,3.57
2018-05-31T13:26:00.278Z,2.67
2018-05-31T13:28:27.971Z,2.50
2018-05-31T13:30:56.474Z,2.50
2018-05-31T13:33:24.166Z,2.77
2018-05-31T13:35:51.873Z,2.97
2018-05-31T13:38:19.606Z,2.30
2018-05-31T13:40:48.059Z,2.70
2018-05-31T13:43:15.759Z,2.93
2018-05-31T13:45:43.458Z,2.53
2018-05-31T13:48:11.186Z,2.53
2018-05-31T13:50:38.954Z,2.70
2018-05-31T13:53:06.644Z,3.40
2018-05-31T13:55:34.336Z,2.77
2018-05-31T13:58:02.822Z,2.60
2018-05-31T14:00:30.500Z,3.10
2018-05-31T14:02:58.235Z,2.73
2018-05-31T14:05:27.022Z,3.20
2018-05-31T14:07:55.461Z,2.87
2018-05-31T14:10:23.189Z,2.77
2018-05-31T14:12:50.930Z,2.97
2018-05-31T14:15:18.608Z,3.30
2018-05-31T14:17:47.050Z,3.20
2018-05-31T14:20:14.869Z,3.40
2018-05-31T14:22:42.595Z,3.27
2018-05-31T14:25:10.275Z,3.53
2018-05-31T14:27:38.717Z,2.90
2018-05-31T14:30:06.473Z,3.00
2018-05-31T14:32:34.187Z,3.63
2018-05-31T14:35:02.626Z,2.80
2018-05-31T14:37:30.327Z,3.07
2018-05-31T14:39:58.765Z,2.70
2018-05-31T14:42:26.487Z,3.40
2018-05-31T14:44:54.924Z,3.10
2018-05-31T14:47:22.594Z,3.37
2018-05-31T14:49:50.339Z,3.13
2018-05-31T14:52:18.006Z,2.80
2018-05-31T14:54:45.679Z,2.97
2018-05-31T14:57:13.443Z,2.90
2018-05-31T14:59:41.136Z,3.07
2018-05-31T15:02:08.861Z,3.33
2018-05-31T15:04:36.575Z,3.90
2018-05-31T15:07:05.023Z,2.83
2018-05-31T15:09:32.751Z,2.50
2018-05-31T15:12:00.423Z,3.03
2018-05-31T15:14:28.094Z,2.60
2018-05-31T15:16:55.820Z,2.90
2018-05-31T15:19:23.507Z,2.83
2018-05-31T15:21:51.185Z,3.00
2018-05-31T15:24:18.904Z,3.13
2018-05-31T15:26:47.355Z,3.40
2018-05-31T15:29:15.026Z,3.13
2018-05-31T15:31:42.751Z,2.93
2018-05-31T15:34:10.423Z,3.50
2018-05-31T15:36:38.090Z,3.50
2018-05-31T15:39:06.695Z,3.50
2018-05-31T15:41:34.379Z,3.50
2018-05-31T15:44:02.051Z,3.90
2018-05-31T15:46:29.759Z,3.90
2018-05-31T15:48:57.431Z,3.43
2018-05-31T15:51:25.183Z,3.23
2018-05-31T15:53:52.858Z,3.77
2018-05-31T15:56:20.543Z,3.10
2018-05-31T15:58:48.246Z,3.50
2018-05-31T16:01:15.930Z,3.10
2018-05-31T16:03:43.646Z,2.63
2018-05-31T16:06:12.099Z,2.63
2018-05-31T16:08:39.861Z,3.40
2018-05-31T16:11:07.722Z,3.50
2018-05-31T16:13:35.486Z,3.50
2018-05-31T16:16:03.253Z,4.23
2018-05-31T16:18:31.017Z,4.67
2018-05-31T16:20:58.813Z,5.30
2018-05-31T16:23:27.357Z,6.33
2018-05-31T16:25:55.079Z,6.73
2018-05-31T16:28:22.789Z,7.07
2018-05-31T16:30:50.471Z,7.07
2018-05-31T16:33:18.178Z,7.90
2018-05-31T16:35:45.846Z,6.90
2018-05-31T16:38:13.515Z,7.20
2018-05-31T16:40:41.222Z,6.70
2018-05-31T16:43:08.923Z,6.90
2018-05-31T16:45:36.604Z,6.73
2018-05-31T16:48:04.456Z,7.17
2018-05-31T16:50:32.994Z,7.07
2018-05-31T16:53:00.744Z,6.60
2018-05-31T16:55:28.549Z,8.60
2018-05-31T16:57:56.293Z,8.53
2018-05-31T17:00:24.048Z,6.50
2018-05-31T17:02:51.826Z,6.03
2018-05-31T17:05:19.536Z,6.60
2018-05-31T17:07:47.382Z,5.70
2018-05-31T17:10:15.820Z,7.23
2018-05-31T17:12:43.669Z,5.57
2018-05-31T17:15:12.232Z,5.13
2018-05-31T17:17:40.043Z,3.80
2018-05-31T17:20:07.714Z,2.97
2018-05-31T17:22:35.431Z,2.43
2018-05-31T17:25:03.191Z,2.60
2018-05-31T17:27:30.914Z,2.43
2018-05-31T17:29:59.374Z,2.13
2018-05-31T17:32:27.083Z,2.10
2018-05-31T17:34:54.807Z,2.97
2018-05-31T17:37:22.539Z,2.50
2018-05-31T17:39:50.219Z,2.37
2018-05-31T17:42:17.960Z,2.73
2018-05-31T17:44:45.679Z,3.03
2018-05-31T17:47:13.419Z,2.40
2018-05-31T17:49:41.090Z,2.90
2018-05-31T17:52:08.803Z,2.17
2018-05-31T17:54:36.546Z,2.00
2018-05-31T17:57:04.987Z,2.00
2018-05-31T17:59:33.489Z,2.00
2018-05-31T18:02:01.163Z,1.83
2018-05-31T18:04:29.139Z,2.23
2018-05-31T18:06:56.898Z,2.30
2018-05-31T18:09:24.566Z,1.93
2018-05-31T18:11:52.283Z,1.80
2018-05-31T18:14:20.053Z,2.30
2018-05-31T18:16:47.749Z,2.70
2018-05-31T18:19:15.418Z,2.57
2018-05-31T18:21:43.150Z,2.67
2018-05-31T18:24:11.623Z,3.00
2018-05-31T18:26:39.311Z,2.60
2018-05-31T18:29:07.027Z,2.87
2018-05-31T18:31:34.699Z,3.03
2018-05-31T18:34:02.415Z,3.00
2018-05-31T18:36:30.095Z,3.30
2018-05-31T18:38:57.827Z,3.50
2018-05-31T18:41:25.552Z,3.27
2018-05-31T18:43:53.219Z,2.20
2018-05-31T18:46:21.710Z,1.70
2018-05-31T18:48:50.159Z,1.90
2018-05-31T18:51:19.709Z,1.47
2018-05-31T18:53:47.398Z,1.63
2018-05-31T18:56:16.059Z,1.90
2018-05-31T18:58:43.733Z,1.70
2018-05-31T19:01:11.446Z,1.70
2018-05-31T19:03:39.123Z,1.98
2018-05-31T19:06:06.871Z,2.10
2018-05-31T19:08:35.318Z,2.37
2018-05-31T19:11:03.794Z,2.90
2018-05-31T19:13:37.041Z,2.33
2018-05-31T19:16:04.819Z,2.57
2018-05-31T19:18:38.186Z,3.10
2018-05-31T19:21:05.922Z,3.00
2018-05-31T19:23:34.371Z,4.30
2018-05-31T19:26:02.087Z,5.40
2018-05-31T19:28:29.819Z,6.13
2018-05-31T19:31:03.240Z,6.57
2018-05-31T19:33:30.975Z,5.40
2018-05-31T19:36:04.347Z,7.80
2018-05-31T19:38:32.069Z,6.07
2018-05-31T19:40:59.751Z,5.73
2018-05-31T19:43:33.011Z,6.67
2018-05-31T19:46:00.695Z,6.77
2018-05-31T19:48:28.411Z,7.20
2018-05-31T19:50:56.078Z,7.13
2018-05-31T19:53:29.571Z,6.50
2018-05-31T19:55:57.259Z,5.13
2018-05-31T19:58:30.726Z,5.90
2018-05-31T20:01:04.106Z,4.93
2018-05-31T20:03:33.270Z,4.23
2018-05-31T20:06:00.946Z,6.10
2018-05-31T20:08:29.381Z,6.43
2018-05-31T20:10:57.089Z,6.60
2018-05-31T20:13:25.526Z,7.57
2018-05-31T20:15:53.266Z,9.83
2018-05-31T20:18:22.527Z,7.50
2018-05-31T20:20:54.544Z,7.50
2018-05-31T20:23:22.343Z,7.93
2018-05-31T20:25:50.058Z,6.80
2018-05-31T20:28:18.070Z,5.37
2018-05-31T20:30:45.766Z,5.33
2018-05-31T20:33:13.499Z,5.67
2018-05-31T20:35:41.938Z,6.10
2018-05-31T20:38:09.662Z,7.27
2018-05-31T20:40:37.423Z,7.47
2018-05-31T20:43:05.109Z,7.50
2018-05-31T20:45:32.836Z,7.40
2018-05-31T20:48:00.519Z,6.83
2018-05-31T20:50:28.315Z,7.17
2018-05-31T20:52:56.035Z,7.33
2018-05-31T20:55:23.711Z,8.00
2018-05-31T20:57:51.422Z,6.80
2018-05-31T21:00:19.094Z,7.10
2018-05-31T21:02:47.574Z,8.50
2018-05-31T21:05:16.052Z,8.00
2018-05-31T21:07:44.498Z,7.83
2018-05-31T21:10:12.218Z,7.13
2018-05-31T21:12:39.899Z,7.43
2018-05-31T21:15:07.649Z,6.40
2018-05-31T21:17:35.326Z,9.07
2018-05-31T21:20:03.065Z,7.40
2018-05-31T21:22:30.765Z,7.57
2018-05-31T21:24:59.264Z,7.77
2018-05-31T21:27:27.710Z,7.30
2018-05-31T21:29:55.387Z,7.57
2018-05-31T21:32:23.103Z,7.90
2018-05-31T21:34:50.779Z,8.70
2018-05-31T21:37:19.245Z,8.77
2018-05-31T21:39:46.955Z,7.77
2018-05-31T21:42:15.391Z,8.10
2018-05-31T21:44:43.110Z,7.43
2018-05-31T21:47:10.783Z,6.93
2018-05-31T21:49:38.491Z,7.63
2018-05-31T21:52:06.924Z,7.53
2018-05-31T21:54:34.645Z,7.80
2018-05-31T21:57:02.319Z,5.97
2018-05-31T21:59:30.508Z,6.70
2018-05-31T22:01:58.180Z,7.47
2018-05-31T22:04:25.910Z,7.30
2018-05-31T22:06:53.610Z,6.90
2018-05-31T22:09:21.339Z,7.43
2018-05-31T22:11:49.018Z,7.10
2018-05-31T22:14:16.718Z,7.13
2018-05-31T22:16:45.199Z,8.07
2018-05-31T22:19:13.653Z,6.97
2018-05-31T22:21:41.502Z,7.43
2018-05-31T22:24:09.267Z,7.13
2018-05-31T22:26:37.032Z,8.20
2018-05-31T22:29:04.900Z,8.37
2018-05-31T22:31:32.665Z,8.50
2018-05-31T22:34:00.430Z,8.10
2018-05-31T22:36:28.208Z,7.80
2018-05-31T22:38:55.932Z,8.57
2018-05-31T22:41:23.607Z,8.80
2018-05-31T22:43:51.332Z,10.10
2018-05-31T22:46:19.775Z,9.97
2018-05-31T22:48:47.635Z,8.60
2018-05-31T22:51:15.400Z,8.30
2018-05-31T22:53:43.164Z,6.97
2018-05-31T22:56:11.032Z,5.37
2018-05-31T22:58:38.797Z,6.20
2018-05-31T23:01:06.665Z,3.70
2018-05-31T23:03:34.430Z,2.37
2018-05-31T23:06:02.298Z,2.30
2018-05-31T23:08:35.637Z,2.90
2018-05-31T23:11:03.530Z,3.03
2018-05-31T23:13:31.295Z,2.93
2018-05-31T23:15:59.060Z,2.20
2018-05-31T23:18:26.825Z,2.40
2018-05-31T23:20:54.692Z,2.33
2018-05-31T23:23:22.560Z,2.07
2018-05-31T23:25:50.427Z,1.80
2018-05-31T23:28:18.295Z,1.97
2018-05-31T23:30:46.060Z,1.97
2018-05-31T23:33:14.500Z,1.50
2018-05-31T23:35:42.213Z,3.07
2018-05-31T23:38:09.930Z,2.10
2018-05-31T23:40:37.603Z,4.00
2018-05-31T23:43:05.312Z,2.07
2018-05-31T23:45:32.991Z,2.10
2018-05-31T23:48:00.706Z,2.77
2018-05-31T23:50:28.435Z,2.63
2018-05-31T23:52:56.142Z,2.30
2018-05-31T23:55:24.622Z,4.67
2018-05-31T23:57:52.300Z,2.80
